METAR Data
IDs: Format: Raw Decoded Include TAF

Data at: 2109 UTC 18 Sep 2018

KVLD 182053Z 10SM SCT050 33/22 A2988 RMK AO2 SLP122 T03330222 56025
KVLD 181953Z VRB05KT 10SM CLR 34/22 A2989 RMK AO2 SLP126 T03390222
KVLD 181853Z 20007KT 10SM FEW047 34/23 A2992 RMK AO2 SLP136 T03440233
KVLD 181753Z 19005KT 10SM FEW041 33/23 A2995 RMK AO2 SLP147 T03280233 10333 20222 58015
KVLD 181653Z 00000KT 10SM SCT038 31/23 A2997 RMK AO2 SLP155 T03110233
KVLD 181553Z VRB03KT 10SM SCT030 32/24 A2998 RMK AO2 SLP159 T03170239
KVLD 181453Z 00000KT 10SM CLR 30/24 A2999 RMK AO2 SLP162 T03000239 50001
KVLD 181353Z 00000KT 10SM CLR 28/24 A3000 RMK AO2 SLP163 T02830244
KVLD 181253Z 00000KT 10SM CLR 26/24 A2999 RMK AO2 SLP162 T02560239
KVLD 181153Z 00000KT 7SM CLR 22/22 A2999 RMK AO2 SLP161 T02220217 10222 20211 53009
KVLD 181053Z 00000KT 6SM BR CLR 22/22 A2998 RMK AO2 SLP159 T02170217
KVLD 180953Z AUTO 00000KT 6SM BR CLR 22/21 A2997 RMK AO2 SLP153 T02170211
KVLD 180853Z AUTO 00000KT 6SM BR CLR 22/22 A2996 RMK AO2 SLP152 T02170217 56005
KVLD 180753Z AUTO 00000KT 5SM BR CLR 22/22 A2996 RMK AO2 SLP152 T02170217
KVLD 180653Z AUTO 00000KT 8SM CLR 22/22 A2997 RMK AO2 SLP155 T02220217
KVLD 180553Z AUTO 00000KT 10SM CLR 22/22 A2998 RMK AO2 SLP157 T02220217 10256 20217 50001
KVLD 180453Z AUTO 00000KT 10SM CLR 22/21 A2998 RMK AO2 SLP159 T02170211 403330217
KVLD 180353Z AUTO 00000KT 10SM CLR 22/22 A2998 RMK AO2 SLP158 T02220217 TSNO
KVLD 180253Z AUTO 00000KT 10SM CLR 23/22 A2998 RMK AO2 SLP156 T02280217 53015 TSNO
KVLD 180153Z AUTO 00000KT 10SM CLR 24/22 A2996 RMK AO2 SLP151 T02390217
KVLD 180053Z AUTO 18003KT 10SM CLR 24/22 A2994 RMK AO2 SLP142 T02440222
KVLD 172353Z 00000KT 10SM CLR 26/22 A2993 RMK AO2 SLP141 60000 T02560222 10333 20256 50000
KVLD 172253Z 21004KT 10SM CLR 27/22 A2994 RMK AO2 SLP143 T02670222
KVLD 172153Z 00000KT 10SM CLR 28/22 A2993 RMK AO2 SLP140 T02780222
KVLD 172100Z 30003KT 10SM CLR 28/22 A2993 RMK AO2 LTG DSNT SE AND S T02830222
KVLD 172053Z 22004KT 10SM VCTS FEW060 28/22 A2993 RMK AO2 LTG DSNT N AND SE AND S TSE1957 SLP141 60000 T02830217 56014
KVLD 172003Z VRB03KT 10SM VCTS BKN047 OVC060 31/24 A2993 RMK AO2 LTG DSNT ALQDS TSE1957 T03060244
KVLD 171953Z 16009KT 10SM TS BKN045 BKN060 30/24 A2993 RMK AO2 LTG DSNT SW AND NW TSB27 SLP141 T03000244
KVLD 171933Z 17007KT 10SM TS BKN036 BKN045 BKN080 33/24 A2994 RMK AO2 LTG DSNT SW AND W TSB27 T03330244
KVLD 171853Z VRB03KT 10SM SCT036 SCT048 31/25 A2993 RMK AO2 LTG DSNT NE AND SW AND W RAB21E32 SLP142 P0000 T03110250
KVLD 171824Z 12003KT 10SM -RA SCT040 BKN070 OVC090 31/26 A2995 RMK AO2 LTG DSNT NE RAB21 P0000 T03110256
KVLD 171753Z VRB04KT 10SM VCTS FEW031 FEW046 32/24 A2997 RMK AO2 LTG DSNT N AND SE AND W TSB19E53 SLP155 T03170244 10328 20250 55005
KVLD 171725Z 17009KT 10SM TS FEW042 29/24 A2997 RMK AO2 LTG DSNT ALQDS TSB19 T02940239
KVLD 171716Z 17009KT 10SM VCTS FEW042 30/23 A2996 RMK AO2 LTG DSNT SE-W T03000228
KVLD 171653Z 17010KT 10SM CLR 29/24 A2997 RMK AO2 LTG DSNT NE-S SLP155 T02940239
KVLD 171638Z 18006KT 10SM FEW031 29/25 A2997 RMK AO2 LTG DSNT E-S T02940250
KVLD 171622Z 21005KT 10SM VCTS BKN031 31/24 A2998 RMK AO2 LTG DSNT SE AND S T03060239
KVLD 171611Z VRB03KT 10SM BKN031 BKN040 31/24 A2998 RMK AO2 LTG DSNT SE AND S T03110244
KVLD 171553Z 00000KT 10SM VCTS SCT023 31/25 A2998 RMK AO2 LTG DSNT S AND SW SLP158 T03060250
KVLD 171453Z 19005KT 10SM FEW020 FEW046 31/25 A2999 RMK AO2 SLP160 T03060250 51011
KVLD 171433Z VRB06KT 10SM SCT020 SCT030 BKN046 30/26 A2999 RMK AO2 T03000256
KVLD 171426Z 18004KT 10SM SCT020 BKN029 29/26 A2999 RMK AO2 T02940256
KVLD 171353Z VRB05KT 10SM SCT013 29/26 A2998 RMK AO2 SLP157 T02940261
KVLD 171253Z 20005KT 10SM CLR 27/26 A2997 RMK AO2 SLP153 T02720256
KVLD 171153Z 00000KT 6SM BR FEW021 25/25 A2996 RMK AO2 SLP150 T02500250 10256 20244 53014
KVLD 171053Z 17004KT 7SM CLR 24/24 A2994 RMK AO2 SLP144 T02440244
KVLD 171019Z AUTO 19004KT 4SM BR SCT003 25/25 A2993 RMK AO2 T02500250
KVLD 171000Z AUTO 17005KT 3SM BR BKN003 BKN017 25/25 A2992 RMK AO2 T02500250
KVLD 170953Z AUTO 18003KT 3SM BR SCT003 BKN017 25/25 A2992 RMK AO2 SLP137 T02500250
KVLD 170946Z AUTO 17003KT 3SM BR SCT003 BKN017 25/25 A2992 RMK AO2 T02500250
KVLD 170927Z AUTO 18004KT 2SM BR SCT002 25/25 A2992 RMK AO2 T02500250